Pagrindinis puslapis
METAR-TAF:

METAR-TAF

Oro uostai :

Frozinonė, Italija

platuma: 41-38N, ilguma: 013-18E, Aukštis: 180 m

Dabartinis oras

Ataskaita buvo paskelbta 46 minutes, ne 17:55 UTC
Vėjas 6 kt iš Pietų/Pietvakarių
Temperatūra 19°C
Drėgmė 94%
Slėgis 1016 hPa
Matomumas: 4000 m
Išsisklaidę debesys ne aukštis 2500 ft, Liūtiniai kamuoliniai debesys.
perkūnija, lietus, rūkana

METAR: LIRH 191755Z 21006KT 4000 -TSRA BR SCT025CB 19/18 Q1016 RMK BKN BKN060 MON INVIS VAR RAPID VIS MIN 4000 WIND THR16 21005KT GRN

Laikas: 20:41 (18:41 UTC)

Prognozė

Ataskaita buvo paskelbta 4 valandos ir 41 minutes, ne 14:00 UTC
Prognozė galioja nuo 19 metu 15 UTC su 19 metu 24 UTC
Vėjas 6 kt iš Rytų/Pietryčių
Matomumas: 8000 m
Išsisklaidę debesys ne aukštis 3000 ft
Laikinai
nuo 19 metu 15 UTC su 19 metu 18 UTC
Matomumas: 2000 m
Mažai debesys ne aukštis 2500 ft, Liūtiniai kamuoliniai debesys.
Su prošvaistėmis ne aukštis 3000 ft
perkūnija, lietus

TAF: LIRH 191400Z 1915/1924 12006KT 8000 SCT030 TEMPO 1915/1918 2000 TSRA FEW025CB BKN030

Orai ataskaitas ir orų prognozės (METAR, TAF).

turimą stotys yra geltonos ir raudonos taškus žemėlapyje.

Perkelti pele per norėdami pamatyti stoties vardą.

Tada spustelėkite, norėdami matyti oro stebėjimo ir prognozės.

Norėdami pakeisti žemėlapį: spustelėkite ant žalios mygtukų su juodo kryžiaus žemyn,; žalią mygtuką su brūkšneliu, jei norite nutolinti; arba žalių rodyklių gretimoms žemėlapius.


METAR-TAF: